createdAt,value
2023-11-07T00:01:52.738Z,99337.47
2023-11-07T00:04:19.740Z,99337.25
2023-11-07T00:06:47.039Z,99351.00
2023-11-07T00:09:13.941Z,99342.75
2023-11-07T00:11:41.994Z,99351.75
2023-11-07T00:14:09.018Z,99351.50
2023-11-07T00:16:37.364Z,99354.00
2023-11-07T00:19:06.888Z,99354.25
2023-11-07T00:21:34.815Z,99359.25
2023-11-07T00:24:01.720Z,99358.22
2023-11-07T00:26:29.020Z,99362.00
2023-11-07T00:28:56.135Z,99371.47
2023-11-07T00:31:26.390Z,99383.22
2023-11-07T00:33:53.447Z,99378.22
2023-11-07T00:36:23.605Z,99387.72
2023-11-07T00:38:50.580Z,99385.69
2023-11-07T00:41:17.804Z,99388.44
2023-11-07T00:43:44.804Z,99391.69
2023-11-07T00:46:12.043Z,99395.69
2023-11-07T00:48:39.589Z,99393.94
2023-11-07T00:51:08.822Z,99397.66
2023-11-07T00:53:38.294Z,99402.41
2023-11-07T00:56:06.720Z,99399.34
2023-11-07T00:58:33.699Z,99403.78
2023-11-07T01:01:01.887Z,99410.75
2023-11-07T01:03:31.279Z,99415.22
2023-11-07T01:05:58.799Z,99410.38
2023-11-07T01:08:25.711Z,99416.56
2023-11-07T01:10:52.969Z,99410.03
2023-11-07T01:13:19.914Z,99417.25
2023-11-07T01:15:49.689Z,99417.69
2023-11-07T01:18:16.859Z,99418.94
2023-11-07T01:20:44.193Z,99414.13
2023-11-07T01:23:13.836Z,99433.91
2023-11-07T01:25:43.347Z,99429.44
2023-11-07T01:28:11.666Z,99434.50
2023-11-07T01:30:39.357Z,99441.81
2023-11-07T01:33:06.684Z,99432.78
2023-11-07T01:35:34.195Z,99437.28
2023-11-07T01:38:01.196Z,99446.31
2023-11-07T01:40:29.692Z,99443.56
2023-11-07T01:42:56.854Z,99441.81
2023-11-07T01:45:24.891Z,99445.53
2023-11-07T01:47:52.463Z,99450.75
2023-11-07T01:50:19.746Z,99459.94
2023-11-07T01:52:49.187Z,99460.88
2023-11-07T01:55:16.607Z,99454.28
2023-11-07T01:57:47.353Z,99461.78
2023-11-07T02:00:16.141Z,99460.94
2023-11-07T02:02:43.794Z,99463.44
2023-11-07T02:05:11.382Z,99460.59
2023-11-07T02:07:39.198Z,99454.78
2023-11-07T02:10:07.637Z,99456.00
2023-11-07T02:12:34.627Z,99453.50
2023-11-07T02:15:18.061Z,99453.94
2023-11-07T02:17:45.635Z,99443.69
2023-11-07T02:20:14.161Z,99445.94
2023-11-07T02:22:50.118Z,99455.50
2023-11-07T02:25:17.858Z,99445.72
2023-11-07T02:27:49.900Z,99444.44
2023-11-07T02:30:17.895Z,99444.22
2023-11-07T02:32:45.205Z,99448.25
2023-11-07T02:35:12.765Z,99450.22
2023-11-07T02:37:40.460Z,99451.44
2023-11-07T02:40:11.255Z,99467.03
2023-11-07T02:42:38.632Z,99455.72
2023-11-07T02:45:07.060Z,99453.22
2023-11-07T02:47:36.486Z,99456.50
2023-11-07T02:50:09.193Z,99452.97
2023-11-07T02:52:37.731Z,99451.44
2023-11-07T02:55:05.589Z,99456.97
2023-11-07T02:57:37.262Z,99449.72
2023-11-07T03:00:05.065Z,99446.72
2023-11-07T03:02:35.803Z,99441.69
2023-11-07T03:05:05.705Z,99440.13
2023-11-07T03:07:34.007Z,99450.69
2023-11-07T03:10:04.587Z,99460.22
2023-11-07T03:12:31.630Z,99450.97
2023-11-07T03:14:59.071Z,99464.25
2023-11-07T03:17:26.729Z,99467.25
2023-11-07T03:19:54.773Z,99470.22
2023-11-07T03:22:23.171Z,99471.28
2023-11-07T03:24:50.835Z,99470.03
2023-11-07T03:27:17.856Z,99479.28
2023-11-07T03:29:45.325Z,99479.22
2023-11-07T03:32:13.163Z,99476.19
2023-11-07T03:34:41.737Z,99479.41
2023-11-07T03:37:12.024Z,99489.44
2023-11-07T03:39:39.288Z,99486.13
2023-11-07T03:42:06.471Z,99492.44
2023-11-07T03:44:36.176Z,99495.47
2023-11-07T03:47:07.106Z,99495.25
2023-11-07T03:49:36.974Z,99497.53
2023-11-07T03:52:04.023Z,99496.97
2023-11-07T03:54:31.185Z,99496.47
2023-11-07T03:56:58.145Z,99490.63
2023-11-07T03:59:28.259Z,99506.88
2023-11-07T04:01:59.542Z,99502.84
2023-11-07T04:04:28.136Z,99514.59
2023-11-07T04:06:55.197Z,99514.81
2023-11-07T04:09:22.500Z,99517.84
2023-11-07T04:11:49.484Z,99515.06
2023-11-07T04:14:19.075Z,99510.56
2023-11-07T04:16:46.124Z,99516.84
2023-11-07T04:19:13.758Z,99512.31
2023-11-07T04:21:40.705Z,99516.56
2023-11-07T04:24:08.128Z,99509.53
2023-11-07T04:26:35.058Z,99516.31
2023-11-07T04:29:02.932Z,99507.88
2023-11-07T04:31:32.179Z,99509.41
2023-11-07T04:33:59.589Z,99518.97
2023-11-07T04:36:26.698Z,99518.22
2023-11-07T04:38:54.839Z,99519.94
2023-11-07T04:41:21.995Z,99519.88
2023-11-07T04:43:49.185Z,99516.03
2023-11-07T04:46:16.193Z,99524.84
2023-11-07T04:48:43.627Z,99525.13
2023-11-07T04:51:12.402Z,99524.75
2023-11-07T04:53:41.914Z,99527.78
2023-11-07T04:56:09.427Z,99525.88
2023-11-07T04:58:56.310Z,99528.41
2023-11-07T05:01:24.927Z,99532.75
2023-11-07T05:03:51.978Z,99524.81
2023-11-07T05:06:21.850Z,99521.09
2023-11-07T05:08:49.058Z,99527.50
2023-11-07T05:11:18.840Z,99541.34
2023-11-07T05:13:49.645Z,99528.59
2023-11-07T05:16:16.876Z,99524.56
2023-11-07T05:18:44.024Z,99536.91
2023-11-07T05:21:11.407Z,99536.50
2023-11-07T05:23:39.226Z,99541.31
2023-11-07T05:26:07.373Z,99535.09
2023-11-07T05:28:34.504Z,99538.63
2023-11-07T05:31:01.821Z,99535.16
2023-11-07T05:33:29.608Z,99527.66
2023-11-07T05:35:57.016Z,99530.44
2023-11-07T05:38:24.016Z,99537.50
2023-11-07T05:40:52.909Z,99530.97
2023-11-07T05:43:20.290Z,99533.50
2023-11-07T05:45:47.516Z,99531.97
2023-11-07T05:48:15.014Z,99533.72
2023-11-07T05:50:44.777Z,99536.69
2023-11-07T05:53:11.707Z,99543.94
2023-11-07T05:55:39.168Z,99542.19
2023-11-07T05:58:08.658Z,99548.13
2023-11-07T06:00:38.909Z,99549.88
2023-11-07T06:03:06.647Z,99544.63
2023-11-07T06:05:35.447Z,99547.34
2023-11-07T06:08:02.524Z,99553.88
2023-11-07T06:10:32.539Z,99564.91
2023-11-07T06:12:59.492Z,99564.66
2023-11-07T06:15:29.380Z,99569.63
2023-11-07T06:17:58.916Z,99569.81
2023-11-07T06:20:26.459Z,99574.72
2023-11-07T06:22:53.505Z,99579.34
2023-11-07T06:25:21.831Z,99593.50
2023-11-07T06:27:52.520Z,99596.16
2023-11-07T06:30:21.237Z,99600.16
2023-11-07T06:32:51.131Z,99601.81
2023-11-07T06:35:18.564Z,99607.84
2023-11-07T06:37:47.566Z,99612.31
2023-11-07T06:40:17.367Z,99619.66
2023-11-07T06:42:47.541Z,99625.34
2023-11-07T06:45:15.369Z,99628.28
2023-11-07T06:47:43.615Z,99638.22
2023-11-07T06:50:11.787Z,99640.06
2023-11-07T06:52:51.702Z,99641.75
2023-11-07T06:55:24.707Z,99647.84
2023-11-07T06:57:56.468Z,99655.47
2023-11-07T07:00:27.772Z,99663.25
2023-11-07T07:02:58.799Z,99668.44
2023-11-07T07:05:27.116Z,99663.34
2023-11-07T07:07:55.806Z,99673.59
2023-11-07T07:10:26.467Z,99669.75
2023-11-07T07:12:54.857Z,99672.84
2023-11-07T07:15:22.181Z,99666.66
2023-11-07T07:17:49.379Z,99669.28
2023-11-07T07:20:18.921Z,99664.91
2023-11-07T07:22:46.045Z,99674.66
2023-11-07T07:25:17.205Z,99679.56
2023-11-07T07:27:48.185Z,99688.38
2023-11-07T07:30:23.206Z,99686.34
2023-11-07T07:32:51.448Z,99685.78
2023-11-07T07:35:22.422Z,99694.22
2023-11-07T07:37:53.896Z,99689.59
2023-11-07T07:40:30.758Z,99695.94
2023-11-07T07:43:00.776Z,99685.69
2023-11-07T07:45:28.268Z,99690.47
2023-11-07T07:47:55.469Z,99690.69
2023-11-07T07:50:22.881Z,99695.41
2023-11-07T07:52:55.622Z,99699.50
2023-11-07T07:55:32.304Z,99702.81
2023-11-07T07:58:03.754Z,99688.06
2023-11-07T08:00:34.199Z,99683.63
2023-11-07T08:03:08.499Z,99687.59
2023-11-07T08:05:42.024Z,99688.13
2023-11-07T08:08:10.793Z,99681.94
2023-11-07T08:10:41.059Z,99682.38
2023-11-07T08:13:11.769Z,99676.06
2023-11-07T08:15:39.378Z,99673.16
2023-11-07T08:18:08.173Z,99683.44
2023-11-07T08:20:36.537Z,99673.28
2023-11-07T08:23:03.485Z,99674.66
2023-11-07T08:25:30.725Z,99675.81
2023-11-07T08:27:58.776Z,99672.88
2023-11-07T08:30:28.339Z,99672.03
2023-11-07T08:32:55.404Z,99667.88
2023-11-07T08:35:25.203Z,99673.47
2023-11-07T08:37:55.429Z,99673.41
2023-11-07T08:40:24.088Z,99659.69
2023-11-07T08:42:52.060Z,99666.22
2023-11-07T08:45:20.847Z,99666.09
2023-11-07T08:47:49.316Z,99669.31
2023-11-07T08:50:16.645Z,99671.44
2023-11-07T08:52:43.895Z,99662.47
2023-11-07T08:55:12.441Z,99669.34
2023-11-07T08:57:42.257Z,99670.69
2023-11-07T09:00:11.172Z,99672.16
2023-11-07T09:02:39.456Z,99679.22
2023-11-07T09:05:08.116Z,99683.94
2023-11-07T09:07:36.355Z,99682.91
2023-11-07T09:10:03.925Z,99688.25
2023-11-07T09:12:31.197Z,99684.88
2023-11-07T09:14:58.626Z,99682.41
2023-11-07T09:17:25.736Z,99689.34
2023-11-07T09:19:53.244Z,99696.97
2023-11-07T09:22:20.503Z,99695.94
2023-11-07T09:24:48.350Z,99691.66
2023-11-07T09:27:15.480Z,99696.69
2023-11-07T09:29:42.824Z,99708.78
2023-11-07T09:32:10.117Z,99706.84
2023-11-07T09:34:41.919Z,99695.31
2023-11-07T09:37:09.029Z,99687.28
2023-11-07T09:39:36.704Z,99684.00
2023-11-07T09:42:09.538Z,99690.38
2023-11-07T09:44:40.341Z,99679.50
2023-11-07T09:47:07.668Z,99675.00
2023-11-07T09:49:35.170Z,99676.50
2023-11-07T09:52:06.391Z,99686.63
2023-11-07T09:54:34.608Z,99677.13
2023-11-07T09:57:07.945Z,99677.13
2023-11-07T09:59:45.926Z,99680.75
2023-11-07T10:02:13.670Z,99677.66
2023-11-07T10:04:43.620Z,99673.72
2023-11-07T10:07:10.764Z,99663.91
2023-11-07T10:09:38.129Z,99670.72
2023-11-07T10:12:14.176Z,99662.38
2023-11-07T10:14:41.461Z,99652.53
2023-11-07T10:17:20.479Z,99650.41
2023-11-07T10:20:06.661Z,99661.00
2023-11-07T10:22:47.451Z,99650.09
2023-11-07T10:25:32.025Z,99651.34
2023-11-07T10:28:04.443Z,99661.75
2023-11-07T10:30:43.741Z,99659.81
2023-11-07T10:33:24.177Z,99661.81
2023-11-07T10:35:56.314Z,99659.69
2023-11-07T10:38:23.902Z,99638.81
2023-11-07T10:40:53.633Z,99655.59
2023-11-07T10:43:34.035Z,99646.38
2023-11-07T10:46:03.773Z,99651.53
2023-11-07T10:48:31.987Z,99658.06
2023-11-07T10:51:05.584Z,99642.84
2023-11-07T10:53:34.671Z,99641.69
2023-11-07T10:56:04.888Z,99643.50
2023-11-07T10:58:35.116Z,99642.25
2023-11-07T11:01:05.959Z,99648.19
2023-11-07T11:03:35.272Z,99650.75
2023-11-07T11:06:04.023Z,99642.25
2023-11-07T11:08:33.634Z,99644.34
2023-11-07T11:11:04.313Z,99633.97
2023-11-07T11:13:34.230Z,99629.03
2023-11-07T11:16:02.386Z,99640.56
2023-11-07T11:18:36.806Z,99631.88
2023-11-07T11:21:10.045Z,99635.09
2023-11-07T11:23:41.659Z,99632.19
2023-11-07T11:26:27.940Z,99627.72
2023-11-07T11:28:54.925Z,99629.81
2023-11-07T11:31:23.006Z,99623.59
2023-11-07T11:34:12.590Z,99629.88
2023-11-07T11:36:45.507Z,99630.06
2023-11-07T11:39:37.836Z,99620.47
2023-11-07T11:42:10.818Z,99614.97
2023-11-07T11:44:37.835Z,99614.59
2023-11-07T11:47:05.143Z,99613.84
2023-11-07T11:49:33.383Z,99608.13
2023-11-07T11:52:02.891Z,99607.19
2023-11-07T11:54:32.442Z,99597.69
2023-11-07T11:57:00.429Z,99598.50
2023-11-07T11:59:50.474Z,99602.16
2023-11-07T12:02:43.156Z,99588.25
2023-11-07T12:05:18.328Z,99585.66
2023-11-07T12:07:46.528Z,99581.03
2023-11-07T12:10:18.453Z,99575.47
2023-11-07T12:12:56.596Z,99570.38
2023-11-07T12:15:26.324Z,99582.56
2023-11-07T12:17:53.910Z,99575.00
2023-11-07T12:20:23.147Z,99566.78
2023-11-07T12:22:50.628Z,99562.97
2023-11-07T12:25:18.988Z,99561.84
2023-11-07T12:28:05.989Z,99561.63
2023-11-07T12:30:34.295Z,99553.75
2023-11-07T12:33:02.720Z,99548.19
2023-11-07T12:35:30.962Z,99548.41
2023-11-07T12:38:03.325Z,99546.16
2023-11-07T12:40:30.663Z,99529.59
2023-11-07T12:43:01.236Z,99538.50
2023-11-07T12:45:35.514Z,99527.91
2023-11-07T12:48:05.329Z,99523.22
2023-11-07T12:50:43.258Z,99518.94
2023-11-07T12:53:11.020Z,99523.03
2023-11-07T12:55:40.391Z,99525.59
2023-11-07T12:58:08.663Z,99521.66
2023-11-07T13:01:09.061Z,99515.88
2023-11-07T13:03:39.404Z,99513.31
2023-11-07T13:06:07.642Z,99499.34
2023-11-07T13:08:36.259Z,99503.41
2023-11-07T13:11:10.950Z,99507.38
2023-11-07T13:13:45.248Z,99509.06
2023-11-07T13:16:16.299Z,99512.72
2023-11-07T13:18:51.061Z,99509.72
2023-11-07T13:21:18.609Z,99508.25
2023-11-07T13:23:46.607Z,99505.25
2023-11-07T13:26:13.666Z,99504.41
2023-11-07T13:28:44.825Z,99499.72
2023-11-07T13:31:15.045Z,99487.53
2023-11-07T13:33:45.078Z,99501.25
2023-11-07T13:36:15.249Z,99495.13
2023-11-07T13:38:43.758Z,99491.41
2023-11-07T13:41:13.171Z,99491.41
2023-11-07T13:43:41.823Z,99485.09
2023-11-07T13:46:11.688Z,99479.84
2023-11-07T13:48:42.113Z,99484.06
2023-11-07T13:51:09.340Z,99482.78
2023-11-07T13:53:38.517Z,99484.81
2023-11-07T13:56:06.613Z,99485.97
2023-11-07T13:58:38.658Z,99488.19
2023-11-07T14:01:05.653Z,99481.03
2023-11-07T14:03:32.986Z,99469.91
2023-11-07T14:06:00.085Z,99477.91
2023-11-07T14:08:27.402Z,99473.13
2023-11-07T14:10:57.570Z,99467.34
2023-11-07T14:13:25.015Z,99464.16
2023-11-07T14:15:53.216Z,99469.72
2023-11-07T14:18:25.739Z,99464.69
2023-11-07T14:20:59.997Z,99464.50
2023-11-07T14:23:27.931Z,99461.63
2023-11-07T14:25:55.122Z,99459.66
2023-11-07T14:28:22.499Z,99458.38
2023-11-07T14:30:49.701Z,99462.19
2023-11-07T14:33:18.500Z,99468.03
2023-11-07T14:35:47.399Z,99472.00
2023-11-07T14:38:15.600Z,99464.22
2023-11-07T14:40:42.671Z,99467.19
2023-11-07T14:43:16.178Z,99462.91
2023-11-07T14:45:46.027Z,99463.47
2023-11-07T14:48:17.536Z,99457.16
2023-11-07T14:50:45.085Z,99456.31
2023-11-07T14:53:12.677Z,99453.31
2023-11-07T14:55:40.068Z,99457.50
2023-11-07T14:58:10.561Z,99446.50
2023-11-07T15:00:41.896Z,99456.63
2023-11-07T15:03:13.927Z,99456.53
2023-11-07T15:05:45.698Z,99456.97
2023-11-07T15:08:16.168Z,99458.34
2023-11-07T15:10:43.394Z,99459.94
2023-11-07T15:13:12.041Z,99470.81
2023-11-07T15:15:40.556Z,99471.66
2023-11-07T15:18:11.690Z,99476.56
2023-11-07T15:20:41.641Z,99468.25
2023-11-07T15:23:09.491Z,99458.00
2023-11-07T15:25:37.950Z,99470.13
2023-11-07T15:28:08.069Z,99469.28
2023-11-07T15:30:37.201Z,99469.16
2023-11-07T15:33:05.085Z,99464.44
2023-11-07T15:35:37.411Z,99469.56
2023-11-07T15:38:08.968Z,99464.53
2023-11-07T15:40:36.749Z,99466.88
2023-11-07T15:43:06.181Z,99469.66
2023-11-07T15:45:36.628Z,99473.25
2023-11-07T15:48:09.397Z,99481.13
2023-11-07T15:50:37.737Z,99477.91
2023-11-07T15:53:08.601Z,99472.66
2023-11-07T15:55:37.998Z,99490.34
2023-11-07T15:58:05.645Z,99489.16
2023-11-07T16:00:33.576Z,99494.91
2023-11-07T16:03:01.259Z,99498.22
2023-11-07T16:05:33.794Z,99496.19
2023-11-07T16:08:04.522Z,99495.75
2023-11-07T16:10:32.857Z,99498.59
2023-11-07T16:13:04.012Z,99494.81
2023-11-07T16:15:31.468Z,99490.66
2023-11-07T16:17:59.023Z,99499.97
2023-11-07T16:20:26.137Z,99484.66
2023-11-07T16:22:53.598Z,99483.78
2023-11-07T16:25:20.755Z,99474.19
2023-11-07T16:27:48.250Z,99470.31
2023-11-07T16:30:17.653Z,99471.84
2023-11-07T16:32:45.583Z,99472.44
2023-11-07T16:35:14.014Z,99474.34
2023-11-07T16:37:44.506Z,99480.44
2023-11-07T16:40:16.358Z,99482.53
2023-11-07T16:42:43.804Z,99474.75
2023-11-07T16:45:14.824Z,99476.25
2023-11-07T16:47:43.937Z,99467.22
2023-11-07T16:50:16.972Z,99469.22
2023-11-07T16:52:44.822Z,99466.44
2023-11-07T16:55:17.489Z,99475.50
2023-11-07T16:57:48.958Z,99469.97
2023-11-07T17:00:19.836Z,99482.75
2023-11-07T17:02:49.327Z,99489.81
2023-11-07T17:05:17.316Z,99497.81
2023-11-07T17:07:45.824Z,99505.75
2023-11-07T17:10:13.399Z,99515.19
2023-11-07T17:12:41.394Z,99522.13
2023-11-07T17:15:09.631Z,99525.38
2023-11-07T17:17:41.641Z,99528.78
2023-11-07T17:20:14.055Z,99535.09
2023-11-07T17:22:41.922Z,99538.84
2023-11-07T17:25:10.315Z,99539.88
2023-11-07T17:27:38.580Z,99537.09
2023-11-07T17:30:08.874Z,99537.91
2023-11-07T17:32:37.221Z,99535.22
2023-11-07T17:35:05.574Z,99532.22
2023-11-07T17:37:34.201Z,99532.31
2023-11-07T17:40:01.566Z,99536.41
2023-11-07T17:42:29.389Z,99540.72
2023-11-07T17:44:56.495Z,99537.72
2023-11-07T17:47:31.601Z,99542.81
2023-11-07T17:49:58.894Z,99536.06
2023-11-07T17:52:26.811Z,99530.59
2023-11-07T17:54:54.603Z,99536.72
2023-11-07T17:57:22.858Z,99539.47
2023-11-07T17:59:53.311Z,99540.53
2023-11-07T18:02:22.244Z,99536.03
2023-11-07T18:04:51.465Z,99526.75
2023-11-07T18:07:20.071Z,99532.81
2023-11-07T18:09:51.473Z,99531.31
2023-11-07T18:12:21.173Z,99534.56
2023-11-07T18:14:50.582Z,99526.13
2023-11-07T18:17:20.680Z,99533.38
2023-11-07T18:19:49.912Z,99531.88
2023-11-07T18:22:18.025Z,99527.66
2023-11-07T18:24:45.242Z,99531.19
2023-11-07T18:27:18.893Z,99529.19
2023-11-07T18:29:47.325Z,99526.94
2023-11-07T18:32:16.611Z,99527.44
2023-11-07T18:34:44.290Z,99528.47
2023-11-07T18:37:14.308Z,99526.94
2023-11-07T18:39:43.100Z,99523.41
2023-11-07T18:42:14.318Z,99520.13
2023-11-07T18:44:44.167Z,99515.63
2023-11-07T18:47:14.149Z,99515.34
2023-11-07T18:49:41.811Z,99518.84
2023-11-07T18:52:09.880Z,99517.59
2023-11-07T18:54:38.084Z,99517.88
2023-11-07T18:57:12.878Z,99522.38
2023-11-07T18:59:40.967Z,99521.16
2023-11-07T19:02:12.925Z,99518.16
2023-11-07T19:04:42.222Z,99524.66
2023-11-07T19:07:10.714Z,99527.94
2023-11-07T19:09:40.082Z,99532.28
2023-11-07T19:12:08.466Z,99533.84
2023-11-07T19:14:37.379Z,99530.09
2023-11-07T19:17:07.209Z,99530.59
2023-11-07T19:19:38.003Z,99527.06
2023-11-07T19:22:07.010Z,99527.84
2023-11-07T19:24:35.797Z,99522.81
2023-11-07T19:27:04.955Z,99517.81
2023-11-07T19:29:33.977Z,99512.78
2023-11-07T19:32:08.479Z,99510.53
2023-11-07T19:34:36.832Z,99516.81
2023-11-07T19:37:07.501Z,99509.81
2023-11-07T19:39:38.265Z,99514.59
2023-11-07T19:42:08.937Z,99520.34
2023-11-07T19:44:41.354Z,99513.31
2023-11-07T19:47:09.286Z,99511.31
2023-11-07T19:49:40.773Z,99510.31
2023-11-07T19:52:09.654Z,99506.28
2023-11-07T19:54:38.584Z,99511.31
2023-11-07T19:57:08.261Z,99507.53
2023-11-07T19:59:39.929Z,99521.59
2023-11-07T20:02:08.822Z,99515.09
2023-11-07T20:04:40.053Z,99516.63
2023-11-07T20:07:08.167Z,99521.47
2023-11-07T20:09:36.279Z,99519.00
2023-11-07T20:12:08.986Z,99516.31
2023-11-07T20:14:44.378Z,99512.91
2023-11-07T20:17:16.139Z,99517.69
2023-11-07T20:19:48.962Z,99510.94
2023-11-07T20:22:18.113Z,99513.91
2023-11-07T20:24:48.128Z,99504.38
2023-11-07T20:27:19.437Z,99504.88
2023-11-07T20:29:47.805Z,99501.38
2023-11-07T20:32:21.153Z,99496.38
2023-11-07T20:34:50.919Z,99491.13
2023-11-07T20:37:19.978Z,99494.13
2023-11-07T20:39:54.777Z,99487.09
2023-11-07T20:42:23.631Z,99490.88
2023-11-07T20:44:57.633Z,99492.41
2023-11-07T20:47:34.738Z,99503.44
2023-11-07T20:50:04.380Z,99508.44
2023-11-07T20:52:32.788Z,99503.38
2023-11-07T20:55:05.268Z,99504.84
2023-11-07T20:57:34.671Z,99511.63
2023-11-07T21:00:04.688Z,99510.59
2023-11-07T21:02:35.343Z,99510.38
2023-11-07T21:05:02.681Z,99511.88
2023-11-07T21:07:30.871Z,99504.63
2023-11-07T21:09:59.010Z,99513.41
2023-11-07T21:12:29.613Z,99503.34
2023-11-07T21:14:58.561Z,99505.88
2023-11-07T21:17:26.268Z,99511.88
2023-11-07T21:19:53.174Z,99515.84
2023-11-07T21:22:23.029Z,99515.84
2023-11-07T21:24:50.662Z,99510.81
2023-11-07T21:27:18.708Z,99515.09
2023-11-07T21:29:48.797Z,99518.56
2023-11-07T21:32:20.771Z,99521.09
2023-11-07T21:34:47.707Z,99516.28
2023-11-07T21:37:16.716Z,99516.31
2023-11-07T21:39:43.749Z,99521.31
2023-11-07T21:42:11.318Z,99515.34
2023-11-07T21:44:38.371Z,99517.34
2023-11-07T21:47:06.877Z,99519.88
2023-11-07T21:49:34.126Z,99506.09
2023-11-07T21:52:01.557Z,99515.66
2023-11-07T21:54:28.786Z,99512.19
2023-11-07T21:56:56.576Z,99519.44
2023-11-07T21:59:23.651Z,99520.97
2023-11-07T22:01:51.546Z,99519.50
2023-11-07T22:04:18.596Z,99525.75
2023-11-07T22:06:45.896Z,99522.97
2023-11-07T22:09:13.039Z,99518.97
2023-11-07T22:11:40.653Z,99523.50
2023-11-07T22:14:07.804Z,99527.53
2023-11-07T22:16:35.098Z,99525.28
2023-11-07T22:19:06.660Z,99524.53
2023-11-07T22:21:37.012Z,99526.03
2023-11-07T22:24:04.723Z,99517.75
2023-11-07T22:26:32.026Z,99525.56
2023-11-07T22:29:00.575Z,99528.84
2023-11-07T22:31:28.453Z,99525.84
2023-11-07T22:33:55.486Z,99519.31
2023-11-07T22:36:23.439Z,99523.63
2023-11-07T22:38:50.550Z,99523.88
2023-11-07T22:41:17.913Z,99520.63
2023-11-07T22:43:44.811Z,99521.38
2023-11-07T22:46:12.415Z,99525.38
2023-11-07T22:48:39.723Z,99529.41
2023-11-07T22:51:07.284Z,99521.63
2023-11-07T22:53:34.394Z,99522.88
2023-11-07T22:56:03.085Z,99526.91
2023-11-07T22:58:30.151Z,99522.88
2023-11-07T23:00:57.396Z,99521.13
2023-11-07T23:03:26.945Z,99519.88
2023-11-07T23:05:54.417Z,99526.91
2023-11-07T23:08:21.493Z,99521.38
2023-11-07T23:10:49.231Z,99515.63
2023-11-07T23:13:16.528Z,99517.34
2023-11-07T23:15:48.383Z,99515.34
2023-11-07T23:18:15.574Z,99522.84
2023-11-07T23:20:43.051Z,99524.81
2023-11-07T23:23:10.734Z,99519.53
2023-11-07T23:25:38.139Z,99520.78
2023-11-07T23:28:05.415Z,99518.53
2023-11-07T23:30:34.443Z,99516.78
2023-11-07T23:33:06.214Z,99516.81
2023-11-07T23:35:33.953Z,99511.31
2023-11-07T23:38:03.409Z,99516.31
2023-11-07T23:40:33.825Z,99508.56
2023-11-07T23:43:05.215Z,99512.09
2023-11-07T23:45:33.842Z,99506.06
2023-11-07T23:48:00.837Z,99504.34
2023-11-07T23:50:28.465Z,99497.84
2023-11-07T23:52:55.441Z,99502.59
2023-11-07T23:55:23.405Z,99514.41
2023-11-07T23:57:52.880Z,99511.59
